ETHB

Buckeburg Airport

Germany
METAR ETHB 251420Z 22004KT 9999 FEW041 SCT055 14/04 Q1038 BLU+BLU+
Observed Flight Rules
Sep-25 @ 14:20 UTC (45 minutes ago) Visual Flight Rules
Wind Visibility Clouds
220° at 4 knots 10,000+ meters
  • Few at 4,100' AGL
  • Scattered at 5,500' AGL
Temperatures Readings
Current 14°C / 57°F
Dewpoint 4°C / 39°F
Humidity 51%
Altimeter 30.65" Hg
Pressure 1038 hPa
Elevation 78
METAR ETHB 251420Z 22004KT 9999 FEW041 SCT055 14/04 Q1038 BLU+BLU+
Observed Flight Rules
Sep-25 @ 14:20 UTC
(45 minutes ago)
VFR
Wind Visibility
220° at 4 knots 10,000+ meters
Clouds
  • Few at 4,100' AGL
  • Scattered at 5,500' AGL
Temperature Dewpoint
14°C / 57°F 4°C / 39°F
Humidity Altimeter Pressure
51% 30.65" Hg 1038 hPa